Portada
METAR-TAF:

METAR-TAF

Aeroports :

Aeroport de Moulay Ali Cherif

Rachidia, Marroc

latitud: 31-56N, longitud: 004-24W, altitud: 1034 m

Observació

L'informe es va fer fa 1 hora i 5 minuts, a les 18:00 UTC
Vent 5 kt del Sud, variant entre Sud/Sud-Est i Sud-Oest
Temperatura 40°C
Humitat 4%
Pressió 1018 hPa
Visibilitat 10 km o més
sense núvols per sota de 1500 mi sense presència de cumulonimbus.

METAR: GMFK 231800Z 19005KT 150V220 CAVOK 40/M10 Q1018 NOSIG

Hora: 20:05 (19:05 UTC)

Pronòstic

L'informe es va fer fa 2 hores i 5 minuts, a les 17:00 UTC
Pronòstic vàlid del 23 a les 18 UTC al 24 a les 24 UTC
Vent 5 kt del Nord-Oest
Visibilitat 10 km o més
sense núvols per sota de 1500 mi sense presència de cumulonimbus.

TAF: GMFK 231700Z 2318/2424 32005KT CAVOK

Observacions i pronòstics meteorològics de més de 4000 aeroports (METAR i TAF).

Les estacions disponibles són els punts grocs i vermells al mapa.

Posi el ratolí al punt desitjat per veure el nom de l'estació.

Feu clic per veure les observacions i els pronòstics meteorològics.

Per canviar el mapa: feu clic els botons verds amb una creu de color negre per apropar; al botó verd amb un guió per allunyar la imatge; o en les fletxes verdes per a mapes adjacents.


METAR-TAF: